createdAt,value
2018-03-31T00:01:03.531Z,17.05
2018-03-31T00:03:30.560Z,14.43
2018-03-31T00:05:57.553Z,14.87
2018-03-31T00:08:24.607Z,18.02
2018-03-31T00:10:51.701Z,13.73
2018-03-31T00:13:18.776Z,13.62
2018-03-31T00:15:45.861Z,13.73
2018-03-31T00:18:12.898Z,15.35
2018-03-31T00:20:39.925Z,13.27
2018-03-31T00:23:06.932Z,14.73
2018-03-31T00:25:33.966Z,14.77
2018-03-31T00:28:00.983Z,12.10
2018-03-31T00:30:27.991Z,14.82
2018-03-31T00:32:55.797Z,13.62
2018-03-31T00:35:22.815Z,13.93
2018-03-31T00:37:49.811Z,14.93
2018-03-31T00:40:17.731Z,13.23
2018-03-31T00:42:44.727Z,13.85
2018-03-31T00:45:11.789Z,12.60
2018-03-31T00:47:38.812Z,13.73
2018-03-31T00:50:05.845Z,13.82
2018-03-31T00:52:32.850Z,12.82
2018-03-31T00:54:59.826Z,15.55
2018-03-31T00:57:26.843Z,13.62
2018-03-31T00:59:53.855Z,14.38
2018-03-31T01:02:20.856Z,12.65
2018-03-31T01:04:47.880Z,12.63
2018-03-31T01:07:14.935Z,12.93
2018-03-31T01:09:41.935Z,12.32
2018-03-31T01:12:08.912Z,15.98
2018-03-31T01:14:35.965Z,12.10
2018-03-31T01:17:03.076Z,15.25
2018-03-31T01:19:30.098Z,12.15
2018-03-31T01:21:57.094Z,12.25
2018-03-31T01:24:24.148Z,10.75
2018-03-31T01:26:51.266Z,11.82
2018-03-31T01:29:18.306Z,12.35
2018-03-31T01:31:45.279Z,11.60
2018-03-31T01:34:13.058Z,13.32
2018-03-31T01:36:40.813Z,13.40
2018-03-31T01:39:07.876Z,11.70
2018-03-31T01:41:34.898Z,12.30
2018-03-31T01:44:01.948Z,11.48
2018-03-31T01:46:29.787Z,14.48
2018-03-31T01:48:56.771Z,12.48
2018-03-31T01:51:23.827Z,11.65
2018-03-31T01:53:51.726Z,12.13
2018-03-31T01:56:18.871Z,10.25
2018-03-31T01:58:45.884Z,13.50
2018-03-31T02:01:12.912Z,11.75
2018-03-31T02:03:40.674Z,11.07
2018-03-31T02:06:08.458Z,11.75
2018-03-31T02:08:35.468Z,14.35
2018-03-31T02:11:02.493Z,11.45
2018-03-31T02:13:29.485Z,12.02
2018-03-31T02:15:57.245Z,11.15
2018-03-31T02:18:25.060Z,12.45
2018-03-31T02:20:52.092Z,12.00
2018-03-31T02:23:19.108Z,11.25
2018-03-31T02:25:46.879Z,12.00
2018-03-31T02:28:13.938Z,10.52
2018-03-31T02:30:41.018Z,10.60
2018-03-31T02:33:08.042Z,11.50
2018-03-31T02:35:35.070Z,14.45
2018-03-31T02:38:02.105Z,10.25
2018-03-31T02:40:29.207Z,12.70
2018-03-31T02:42:56.232Z,11.88
2018-03-31T02:45:23.276Z,12.05
2018-03-31T02:47:50.299Z,12.93
2018-03-31T02:50:17.319Z,11.50
2018-03-31T02:52:44.315Z,12.05
2018-03-31T02:55:11.323Z,10.00
2018-03-31T02:57:38.286Z,12.25
2018-03-31T03:00:05.344Z,11.65
2018-03-31T03:02:33.088Z,11.38
2018-03-31T03:05:00.860Z,14.57
2018-03-31T03:07:28.613Z,11.55
2018-03-31T03:09:55.626Z,13.20
2018-03-31T03:12:22.644Z,13.77
2018-03-31T03:14:49.631Z,12.65
2018-03-31T03:17:16.622Z,12.80
2018-03-31T03:19:43.654Z,13.57
2018-03-31T03:22:11.403Z,14.20
2018-03-31T03:24:38.375Z,12.65
2018-03-31T03:27:05.375Z,13.98
2018-03-31T03:29:32.375Z,11.27
2018-03-31T03:31:59.386Z,13.43
2018-03-31T03:34:26.370Z,12.30
2018-03-31T03:36:53.397Z,12.10
2018-03-31T03:39:21.151Z,13.82
2018-03-31T03:41:48.212Z,14.77
2018-03-31T03:44:15.966Z,15.90
2018-03-31T03:46:42.977Z,16.33
2018-03-31T03:49:09.952Z,12.75
2018-03-31T03:51:36.930Z,14.02
2018-03-31T03:54:03.942Z,12.63
2018-03-31T03:56:30.914Z,13.77
2018-03-31T03:58:57.984Z,12.45
2018-03-31T04:01:24.932Z,12.93
2018-03-31T04:03:51.952Z,13.68
2018-03-31T04:06:18.986Z,14.87
2018-03-31T04:08:46.746Z,11.27
2018-03-31T04:11:14.517Z,15.65
2018-03-31T04:13:42.298Z,12.65
2018-03-31T04:16:09.313Z,15.82
2018-03-31T04:18:37.991Z,14.25
2018-03-31T04:21:04.994Z,12.32
2018-03-31T04:23:31.978Z,13.18
2018-03-31T04:25:58.950Z,12.98
2018-03-31T04:28:25.962Z,12.90
2018-03-31T04:30:52.985Z,13.40
2018-03-31T04:33:19.987Z,14.00
2018-03-31T04:35:46.995Z,12.82
2018-03-31T04:38:13.970Z,12.05
2018-03-31T04:40:41.858Z,18.60
2018-03-31T04:43:14.028Z,13.75
2018-03-31T04:45:41.061Z,15.18
2018-03-31T04:48:08.067Z,12.75
2018-03-31T04:50:35.117Z,14.77
2018-03-31T04:53:02.195Z,13.52
2018-03-31T04:55:29.288Z,13.60
2018-03-31T04:57:56.270Z,14.50
2018-03-31T05:00:25.088Z,13.30
2018-03-31T05:02:52.102Z,15.30
2018-03-31T05:05:19.270Z,16.30
2018-03-31T05:07:47.155Z,13.43
2018-03-31T05:10:14.182Z,15.50
2018-03-31T05:12:41.974Z,15.40
2018-03-31T05:15:09.004Z,14.02
2018-03-31T05:17:36.062Z,13.77
2018-03-31T05:20:03.115Z,14.02
2018-03-31T05:22:30.138Z,13.00
2018-03-31T05:24:57.918Z,15.15
2018-03-31T05:27:24.947Z,15.13
2018-03-31T05:29:52.717Z,13.18
2018-03-31T05:32:20.467Z,13.88
2018-03-31T05:34:47.482Z,12.90
2018-03-31T05:37:14.699Z,12.75
2018-03-31T05:39:41.870Z,12.85
2018-03-31T05:42:08.925Z,12.52
2018-03-31T05:44:35.940Z,15.40
2018-03-31T05:47:03.882Z,15.05
2018-03-31T05:49:30.850Z,19.00
2018-03-31T05:51:57.853Z,16.23
2018-03-31T05:54:24.822Z,14.57
2018-03-31T05:56:51.813Z,15.98
2018-03-31T05:59:18.812Z,14.07
2018-03-31T06:01:45.823Z,15.57
2018-03-31T06:04:12.864Z,12.55
2018-03-31T06:06:39.877Z,14.07
2018-03-31T06:09:06.877Z,14.45
2018-03-31T06:11:33.885Z,17.95
2018-03-31T06:14:00.890Z,12.80
2018-03-31T06:16:28.654Z,14.93
2018-03-31T06:18:55.672Z,14.30
2018-03-31T06:21:22.668Z,16.33
2018-03-31T06:23:49.663Z,15.20
2018-03-31T06:26:16.646Z,15.52
2018-03-31T06:28:43.716Z,15.23
2018-03-31T06:31:10.722Z,12.52
2018-03-31T06:33:37.695Z,15.90
2018-03-31T06:36:04.712Z,12.77
2018-03-31T06:38:31.679Z,15.30
2018-03-31T06:40:59.430Z,12.93
2018-03-31T06:43:27.196Z,12.02
2018-03-31T06:45:54.240Z,12.37
2018-03-31T06:48:22.054Z,17.00
2018-03-31T06:50:49.050Z,12.85
2018-03-31T06:53:16.051Z,13.50
2018-03-31T06:55:43.035Z,12.35
2018-03-31T06:58:10.047Z,15.95
2018-03-31T07:00:37.018Z,15.07
2018-03-31T07:03:03.991Z,14.52
2018-03-31T07:05:31.799Z,13.07
2018-03-31T07:07:58.834Z,14.00
2018-03-31T07:10:25.831Z,13.73
2018-03-31T07:12:52.839Z,14.20
2018-03-31T07:15:19.844Z,13.90
2018-03-31T07:17:46.903Z,14.25
2018-03-31T07:20:13.930Z,13.18
2018-03-31T07:22:41.682Z,17.37
2018-03-31T07:25:08.689Z,12.73
2018-03-31T07:27:35.692Z,13.30
2018-03-31T07:30:02.757Z,16.67
2018-03-31T07:32:29.782Z,14.60
2018-03-31T07:34:56.795Z,13.52
2018-03-31T07:37:23.901Z,13.70
2018-03-31T07:39:50.891Z,13.70
2018-03-31T07:42:17.903Z,13.00
2018-03-31T07:44:44.963Z,15.50
2018-03-31T07:47:11.966Z,12.95
2018-03-31T07:49:39.715Z,14.57
2018-03-31T07:52:06.826Z,17.70
2018-03-31T07:54:33.818Z,13.40
2018-03-31T07:57:01.729Z,11.93
2018-03-31T07:59:28.735Z,15.20
2018-03-31T08:01:56.521Z,12.73
2018-03-31T08:04:23.574Z,13.48
2018-03-31T08:06:50.607Z,12.90
2018-03-31T08:09:17.634Z,15.00
2018-03-31T08:11:44.697Z,12.65
2018-03-31T08:14:11.782Z,14.23
2018-03-31T08:16:38.871Z,16.15
2018-03-31T08:19:06.631Z,12.25
2018-03-31T08:21:33.645Z,15.57
2018-03-31T08:24:00.651Z,11.55
2018-03-31T08:26:28.398Z,12.10
2018-03-31T08:28:55.429Z,12.52
2018-03-31T08:31:22.452Z,15.00
2018-03-31T08:33:49.497Z,13.77
2018-03-31T08:36:16.515Z,11.85
2018-03-31T08:38:43.655Z,10.82
2018-03-31T08:41:10.679Z,13.25
2018-03-31T08:43:37.788Z,12.95
2018-03-31T08:46:04.795Z,14.55
2018-03-31T08:48:31.840Z,15.18
2018-03-31T08:50:58.854Z,13.65
2018-03-31T08:53:25.997Z,11.68
2018-03-31T08:55:52.966Z,11.98
2018-03-31T08:58:20.039Z,13.52
2018-03-31T09:00:47.061Z,12.73
2018-03-31T09:03:14.130Z,11.85
2018-03-31T09:05:41.137Z,15.25
2018-03-31T09:08:08.109Z,12.25
2018-03-31T09:10:35.154Z,13.38
2018-03-31T09:13:02.183Z,12.32
2018-03-31T09:15:29.169Z,12.82
2018-03-31T09:17:56.167Z,11.90
2018-03-31T09:20:23.154Z,14.15
2018-03-31T09:22:50.146Z,14.73
2018-03-31T09:25:17.123Z,14.32
2018-03-31T09:27:44.882Z,13.50
2018-03-31T09:30:11.874Z,17.65
2018-03-31T09:32:38.874Z,15.10
2018-03-31T09:35:06.612Z,14.05
2018-03-31T09:37:33.632Z,17.08
2018-03-31T09:40:00.700Z,15.65
2018-03-31T09:42:27.666Z,15.43
2018-03-31T09:44:55.003Z,16.25
2018-03-31T09:47:22.233Z,13.98
2018-03-31T09:49:49.400Z,14.23
2018-03-31T09:52:16.558Z,16.80
2018-03-31T09:54:43.675Z,16.15
2018-03-31T09:57:10.687Z,15.27
2018-03-31T09:59:37.767Z,16.12
2018-03-31T10:02:04.822Z,18.40
2018-03-31T10:04:33.340Z,18.02
2018-03-31T10:07:00.447Z,18.05
2018-03-31T10:09:27.860Z,17.08
2018-03-31T10:11:55.864Z,17.52
2018-03-31T10:14:22.937Z,22.08
2018-03-31T10:16:50.039Z,19.10
2018-03-31T10:19:17.069Z,18.00
2018-03-31T10:21:44.043Z,23.30
2018-03-31T10:24:11.263Z,23.10
2018-03-31T10:26:38.449Z,18.48
2018-03-31T10:29:05.684Z,23.40
2018-03-31T10:31:32.720Z,22.62
2018-03-31T10:34:00.501Z,25.62
2018-03-31T10:36:27.545Z,22.02
2018-03-31T10:38:54.559Z,23.60
2018-03-31T10:41:21.603Z,20.25
2018-03-31T10:43:48.616Z,19.20
2018-03-31T10:46:15.715Z,20.23
2018-03-31T10:48:43.676Z,18.15
2018-03-31T10:51:11.855Z,23.48
2018-03-31T10:53:38.909Z,17.90
2018-03-31T10:56:06.903Z,20.25
2018-03-31T10:58:34.085Z,21.67
2018-03-31T11:01:01.230Z,18.95
2018-03-31T11:03:28.282Z,20.80
2018-03-31T11:05:56.212Z,21.75
2018-03-31T11:08:23.456Z,22.23
2018-03-31T11:10:51.009Z,24.23
2018-03-31T11:13:18.374Z,22.45
2018-03-31T11:15:46.444Z,23.08
2018-03-31T11:18:14.214Z,23.87
2018-03-31T11:20:41.827Z,21.17
2018-03-31T11:23:08.827Z,19.30
2018-03-31T11:25:35.935Z,19.42
2018-03-31T11:28:02.999Z,20.45
2018-03-31T11:30:30.941Z,20.48
2018-03-31T11:33:03.087Z,22.00
2018-03-31T11:35:30.778Z,20.37
2018-03-31T11:37:58.601Z,19.60
2018-03-31T11:40:26.158Z,21.27
2018-03-31T11:42:53.633Z,24.05
2018-03-31T11:45:24.994Z,20.33
2018-03-31T11:47:52.097Z,22.35
2018-03-31T11:50:21.124Z,25.95
2018-03-31T11:52:48.133Z,28.80
2018-03-31T11:55:15.203Z,22.15
2018-03-31T11:57:42.212Z,24.90
2018-03-31T12:00:09.344Z,22.37
2018-03-31T12:02:36.652Z,25.37
2018-03-31T12:05:03.695Z,24.10
2018-03-31T12:07:30.854Z,19.90
2018-03-31T12:09:57.923Z,22.98
2018-03-31T12:12:25.118Z,23.12
2018-03-31T12:14:52.232Z,23.02
2018-03-31T12:17:19.317Z,20.12
2018-03-31T12:19:49.015Z,21.08
2018-03-31T12:22:16.116Z,22.13
2018-03-31T12:24:43.254Z,21.92
2018-03-31T12:27:10.449Z,20.25
2018-03-31T12:32:39.632Z,20.12
2018-03-31T12:35:06.685Z,26.23
2018-03-31T12:37:33.691Z,25.60
2018-03-31T12:40:00.942Z,21.62
2018-03-31T12:42:40.756Z,25.92
2018-03-31T12:45:10.068Z,27.23
2018-03-31T12:47:37.144Z,22.87
2018-03-31T12:50:10.737Z,21.50
2018-03-31T12:52:39.246Z,29.42
2018-03-31T12:55:11.052Z,24.60
2018-03-31T12:57:39.812Z,25.60
2018-03-31T13:00:08.228Z,24.17
2018-03-31T13:02:35.276Z,23.92
2018-03-31T13:05:02.309Z,28.92
2018-03-31T13:07:29.517Z,31.17
2018-03-31T13:09:56.554Z,29.33
2018-03-31T13:12:29.775Z,30.25
2018-03-31T13:17:48.527Z,28.77
2018-03-31T13:20:15.937Z,32.03
2018-03-31T13:22:42.998Z,28.70
2018-03-31T13:25:11.631Z,34.47
2018-03-31T13:27:40.804Z,28.25
2018-03-31T13:30:08.011Z,29.20
2018-03-31T13:32:35.223Z,26.77
2018-03-31T13:35:02.335Z,28.23
2018-03-31T13:37:29.360Z,24.27
2018-03-31T13:39:56.362Z,21.15
2018-03-31T13:42:23.352Z,24.58
2018-03-31T13:44:50.376Z,25.12
2018-03-31T13:47:17.366Z,22.10
2018-03-31T13:49:44.365Z,30.08
2018-03-31T13:52:11.527Z,22.23
2018-03-31T13:54:38.565Z,20.67
2018-03-31T13:57:05.741Z,20.77
2018-03-31T13:59:32.974Z,26.23
2018-03-31T14:02:00.097Z,22.23
2018-03-31T14:04:27.150Z,19.30
2018-03-31T14:06:54.423Z,26.37
2018-03-31T14:09:22.241Z,29.40
2018-03-31T14:11:49.270Z,27.80
2018-03-31T14:14:16.436Z,32.00
2018-03-31T14:16:43.598Z,24.87
2018-03-31T14:19:11.506Z,26.52
2018-03-31T14:21:39.479Z,26.40
2018-03-31T14:24:07.373Z,27.48
2018-03-31T14:26:34.412Z,24.90
2018-03-31T14:29:02.286Z,24.92
2018-03-31T14:31:31.074Z,27.55
2018-03-31T14:33:59.113Z,23.85
2018-03-31T14:36:26.259Z,31.08
2018-03-31T14:38:53.729Z,22.23
2018-03-31T14:41:22.409Z,23.27
2018-03-31T14:43:49.406Z,24.58
2018-03-31T14:46:16.394Z,24.87
2018-03-31T14:48:43.374Z,26.98
2018-03-31T14:51:11.182Z,34.05
2018-03-31T14:53:38.344Z,28.98
2018-03-31T14:56:06.317Z,30.12
2018-03-31T14:58:35.961Z,26.40
2018-03-31T15:01:03.136Z,30.45
2018-03-31T15:03:30.237Z,28.23
2018-03-31T15:05:57.850Z,25.12
2018-03-31T15:08:24.983Z,31.35
2018-03-31T15:10:52.050Z,26.20
2018-03-31T15:13:19.103Z,27.80
2018-03-31T15:15:48.481Z,29.00
2018-03-31T15:18:15.559Z,20.60
2018-03-31T15:20:44.584Z,25.85
2018-03-31T15:23:11.661Z,22.98
2018-03-31T15:25:40.168Z,24.75
2018-03-31T15:28:07.480Z,24.73
2018-03-31T15:30:35.660Z,21.70
2018-03-31T15:33:03.759Z,23.92
2018-03-31T15:35:31.699Z,27.08
2018-03-31T15:37:58.813Z,29.35
2018-03-31T15:40:27.699Z,27.65
2018-03-31T15:42:55.817Z,29.92
2018-03-31T15:45:25.381Z,31.25
2018-03-31T15:47:52.715Z,27.77
2018-03-31T15:50:21.213Z,27.83
2018-03-31T15:52:50.628Z,24.98
2018-03-31T15:55:17.879Z,27.70
2018-03-31T15:57:45.124Z,26.87
2018-03-31T16:00:12.620Z,30.17
2018-03-31T16:02:44.433Z,25.98
2018-03-31T16:08:02.086Z,29.55
2018-03-31T16:10:29.246Z,25.62
2018-03-31T16:12:57.048Z,25.00
2018-03-31T16:15:24.867Z,27.70
2018-03-31T16:17:51.936Z,25.45
2018-03-31T16:20:18.975Z,25.55
2018-03-31T16:22:46.783Z,26.02
2018-03-31T16:25:13.796Z,27.95
2018-03-31T16:27:40.824Z,27.50
2018-03-31T16:30:07.894Z,27.27
2018-03-31T16:35:10.706Z,28.12
2018-03-31T16:37:38.122Z,24.67
2018-03-31T16:40:09.550Z,25.05
2018-03-31T16:42:40.211Z,21.27
2018-03-31T16:45:09.233Z,21.60
2018-03-31T16:47:38.708Z,20.25
2018-03-31T16:50:05.844Z,20.55
2018-03-31T16:55:05.565Z,25.15
2018-03-31T16:57:33.382Z,23.17
2018-03-31T17:00:00.420Z,27.90
2018-03-31T17:02:29.052Z,27.52
2018-03-31T17:04:56.380Z,24.92
2018-03-31T17:07:23.740Z,25.48
2018-03-31T17:09:50.991Z,29.02
2018-03-31T17:12:18.054Z,24.60
2018-03-31T17:14:45.200Z,28.40
2018-03-31T17:17:12.435Z,25.10
2018-03-31T17:19:39.728Z,23.27
2018-03-31T17:22:09.403Z,25.20
2018-03-31T17:24:38.808Z,26.10
2018-03-31T17:27:09.620Z,28.15
2018-03-31T17:32:08.951Z,33.90
2018-03-31T17:34:36.033Z,32.97
2018-03-31T17:39:41.564Z,34.80
2018-03-31T17:42:13.316Z,31.62
2018-03-31T17:44:40.529Z,29.35
2018-03-31T17:47:07.697Z,29.98
2018-03-31T17:49:35.175Z,28.40
2018-03-31T17:52:02.464Z,27.60
2018-03-31T17:54:29.473Z,30.90
2018-03-31T17:56:56.689Z,25.85
2018-03-31T17:59:30.763Z,29.52
2018-03-31T18:01:57.860Z,26.05
2018-03-31T18:04:27.861Z,26.75
2018-03-31T18:06:54.974Z,22.80
2018-03-31T18:09:22.155Z,29.40
2018-03-31T18:11:50.849Z,27.75
2018-03-31T18:14:19.616Z,31.67
2018-03-31T18:16:46.888Z,27.35
2018-03-31T18:19:14.201Z,26.58
2018-03-31T18:21:41.362Z,28.62
2018-03-31T18:24:12.305Z,29.65
2018-03-31T18:26:40.414Z,30.42
2018-03-31T18:29:09.191Z,29.27
2018-03-31T18:31:36.344Z,31.37
2018-03-31T18:34:03.594Z,31.65
2018-03-31T18:36:30.734Z,35.58
2018-03-31T18:38:58.569Z,36.70
2018-03-31T18:41:25.734Z,30.77
2018-03-31T18:43:52.798Z,31.95
2018-03-31T18:46:21.312Z,31.80
2018-03-31T18:48:49.308Z,29.65
2018-03-31T18:51:16.450Z,26.30
2018-03-31T18:53:43.597Z,27.30
2018-03-31T18:56:10.655Z,25.48
2018-03-31T18:58:37.712Z,25.85
2018-03-31T19:01:04.898Z,27.05
2018-03-31T19:03:31.995Z,29.17
2018-03-31T19:05:59.163Z,25.02
2018-03-31T19:08:27.724Z,36.70
2018-03-31T19:10:55.092Z,32.70
2018-03-31T19:13:23.938Z,36.42
2018-03-31T19:18:43.882Z,26.33
2018-03-31T19:21:11.163Z,30.15
2018-03-31T19:23:39.549Z,29.37
2018-03-31T19:26:07.381Z,29.08
2018-03-31T19:28:34.574Z,25.30
2018-03-31T19:31:01.784Z,24.60
2018-03-31T19:33:28.820Z,22.60
2018-03-31T19:36:01.409Z,24.55
2018-03-31T19:38:28.729Z,23.70
2018-03-31T19:40:55.815Z,20.83
2018-03-31T19:43:24.588Z,22.83
2018-03-31T19:45:51.925Z,24.37
2018-03-31T19:48:19.089Z,22.20
2018-03-31T19:50:49.436Z,20.67
2018-03-31T19:53:16.619Z,19.92
2018-03-31T19:55:44.394Z,20.02
2018-03-31T19:58:11.474Z,20.25
2018-03-31T20:00:38.687Z,20.42
2018-03-31T20:03:05.766Z,21.12
2018-03-31T20:05:32.915Z,21.75
2018-03-31T20:07:59.966Z,22.37
2018-03-31T20:10:28.140Z,21.35
2018-03-31T20:12:55.275Z,24.30
2018-03-31T20:15:24.120Z,21.15
2018-03-31T20:17:51.212Z,20.30
2018-03-31T20:20:18.585Z,22.65
2018-03-31T20:22:45.688Z,22.02
2018-03-31T20:25:12.789Z,21.62
2018-03-31T20:27:39.826Z,24.42
2018-03-31T20:30:07.011Z,18.95
2018-03-31T20:32:34.127Z,21.15
2018-03-31T20:35:01.127Z,26.48
2018-03-31T20:37:29.165Z,22.70
2018-03-31T20:39:56.230Z,22.50
2018-03-31T20:42:24.015Z,19.48
2018-03-31T20:44:51.952Z,20.12
2018-03-31T20:47:18.944Z,18.77
2018-03-31T20:49:46.197Z,17.75
2018-03-31T20:52:13.286Z,19.30
2018-03-31T20:54:40.297Z,19.87
2018-03-31T20:57:07.326Z,18.37
2018-03-31T20:59:34.732Z,21.10
2018-03-31T21:02:01.823Z,20.48
2018-03-31T21:04:29.635Z,19.40
2018-03-31T21:06:58.455Z,19.75
2018-03-31T21:09:25.488Z,23.27
2018-03-31T21:11:52.520Z,20.90
2018-03-31T21:14:19.602Z,24.85
2018-03-31T21:16:46.835Z,20.30
2018-03-31T21:19:13.835Z,23.05
2018-03-31T21:21:41.627Z,22.73
2018-03-31T21:24:08.630Z,19.95
2018-03-31T21:26:36.565Z,19.75
2018-03-31T21:29:03.754Z,21.17
2018-03-31T21:31:30.755Z,21.65
2018-03-31T21:33:57.797Z,21.05
2018-03-31T21:36:24.826Z,20.58
2018-03-31T21:38:51.853Z,21.92
2018-03-31T21:41:18.889Z,20.88
2018-03-31T21:43:45.959Z,25.95
2018-03-31T21:46:13.045Z,24.90
2018-03-31T21:48:40.036Z,25.45
2018-03-31T21:51:07.031Z,30.55
2018-03-31T21:53:34.026Z,32.88
2018-03-31T21:56:01.032Z,35.03
2018-03-31T21:58:28.027Z,29.90
2018-03-31T22:00:55.194Z,24.55
2018-03-31T22:03:23.315Z,26.40
2018-03-31T22:05:50.388Z,27.37
2018-03-31T22:08:17.394Z,24.37
2018-03-31T22:10:44.414Z,24.12
2018-03-31T22:13:16.992Z,21.40
2018-03-31T22:15:48.916Z,22.25
2018-03-31T22:18:15.926Z,19.62
2018-03-31T22:20:42.939Z,21.90
2018-03-31T22:23:09.943Z,22.25
2018-03-31T22:25:36.946Z,23.65
2018-03-31T22:28:04.290Z,19.77
2018-03-31T22:30:32.149Z,20.33
2018-03-31T22:32:59.143Z,18.55
2018-03-31T22:35:26.194Z,21.05
2018-03-31T22:37:53.429Z,22.10
2018-03-31T22:40:20.444Z,21.98
2018-03-31T22:42:47.449Z,24.33
2018-03-31T22:45:14.463Z,22.52
2018-03-31T22:47:41.440Z,24.55
2018-03-31T22:50:08.458Z,27.25
2018-03-31T22:52:35.531Z,22.55
2018-03-31T22:55:02.578Z,27.17
2018-03-31T22:57:29.583Z,25.40
2018-03-31T22:59:56.606Z,24.83
2018-03-31T23:02:23.680Z,25.48
2018-03-31T23:04:50.694Z,20.75
2018-03-31T23:07:17.678Z,19.90
2018-03-31T23:09:44.679Z,23.58
2018-03-31T23:12:11.759Z,22.30
2018-03-31T23:14:38.742Z,22.87
2018-03-31T23:17:05.795Z,19.17
2018-03-31T23:19:33.571Z,21.33
2018-03-31T23:22:00.611Z,20.95
2018-03-31T23:24:28.429Z,22.20
2018-03-31T23:26:55.407Z,23.50
2018-03-31T23:29:22.435Z,21.70
2018-03-31T23:31:49.434Z,22.48
2018-03-31T23:34:16.440Z,22.42
2018-03-31T23:36:44.215Z,18.05
2018-03-31T23:39:11.232Z,24.45
2018-03-31T23:41:38.213Z,22.13
2018-03-31T23:44:06.058Z,21.65
2018-03-31T23:46:33.063Z,20.02
2018-03-31T23:49:00.055Z,25.45
2018-03-31T23:51:27.059Z,22.30
2018-03-31T23:53:54.171Z,21.30
2018-03-31T23:56:21.211Z,20.27
2018-03-31T23:58:48.176Z,24.55
